QTR1305 OTHH-HECA
Flight info
| Callsign | QTR1305 |
|---|---|
| Flight time | N/A |
| Altitude | 360 |
| Route | OTHH/34R N0497F360 TULU2E TULUB B457 NARMI N697 HIL T540 ENABI L550 NOVPA N697 MENLI L677 CVO DCT HECA/05R |
| Aircraft | A350/H-V/N |
Departure
| Time | 2026-05-07 20:52 |
|---|---|
| Airport | Hamad International Airport (OTHH) |
Arrival
| Time | N/A |
|---|---|
| Airport | Cairo International Airport (HECA) |
| Time | Latitude | Longitude | Altitude | Speed | Heading |
|---|---|---|---|---|---|
| 2026-05-07 20:29 | 25.26379 | 51.61720 | 28 ft | 0 kts | 182° |
| 2026-05-07 20:37 | 25.26390 | 51.61720 | 28 ft | 3 kts | 182° |
| 2026-05-07 20:38 | 25.26409 | 51.61721 | 28 ft | 3 kts | 182° |
| 2026-05-07 20:38 | 25.26427 | 51.61722 | 25 ft | 3 kts | 182° |
| 2026-05-07 20:38 | 25.26445 | 51.61723 | 26 ft | 3 kts | 182° |
| 2026-05-07 20:38 | 25.26463 | 51.61724 | 26 ft | 3 kts | 182° |
| 2026-05-07 20:39 | 25.26481 | 51.61724 | 26 ft | 3 kts | 171° |
| 2026-05-07 20:39 | 25.26500 | 51.61719 | 25 ft | 3 kts | 153° |
| 2026-05-07 20:39 | 25.26516 | 51.61707 | 27 ft | 3 kts | 136° |
| 2026-05-07 20:39 | 25.26528 | 51.61691 | 25 ft | 3 kts | 118° |
| 2026-05-07 20:40 | 25.26535 | 51.61673 | 28 ft | 3 kts | 102° |
| 2026-05-07 20:40 | 25.26537 | 51.61653 | 28 ft | 3 kts | 85° |
| 2026-05-07 20:40 | 25.26534 | 51.61633 | 25 ft | 3 kts | 68° |
| 2026-05-07 20:40 | 25.26525 | 51.61616 | 26 ft | 3 kts | 52° |
| 2026-05-07 20:41 | 25.26517 | 51.61603 | 25 ft | 3 kts | 60° |
| 2026-05-07 20:41 | 25.26515 | 51.61599 | 25 ft | 0 kts | 63° |
| 2026-05-07 20:43 | 25.26521 | 51.61613 | 26 ft | 3 kts | 64° |
| 2026-05-07 20:44 | 25.26534 | 51.61645 | 25 ft | 6 kts | 68° |
| 2026-05-07 20:44 | 25.26550 | 51.61696 | 25 ft | 8 kts | 71° |
| 2026-05-07 20:44 | 25.26574 | 51.61760 | 28 ft | 9 kts | 66° |
| 2026-05-07 20:44 | 25.26601 | 51.61829 | 28 ft | 11 kts | 66° |
| 2026-05-07 20:45 | 25.26623 | 51.61901 | 28 ft | 2 kts | 77° |
| 2026-05-07 20:45 | 25.26624 | 51.61909 | 28 ft | 2 kts | 78° |
| 2026-05-07 20:45 | 25.26628 | 51.61934 | 28 ft | 5 kts | 83° |
| 2026-05-07 20:45 | 25.26628 | 51.61944 | 28 ft | 0 kts | 84° |
| 2026-05-07 20:46 | 25.26629 | 51.61948 | 28 ft | 0 kts | 85° |
| 2026-05-07 20:46 | 25.26629 | 51.61952 | 28 ft | 2 kts | 85° |
| 2026-05-07 20:47 | 25.26629 | 51.61957 | 28 ft | 0 kts | 85° |
| 2026-05-07 20:47 | 25.26631 | 51.61976 | 28 ft | 5 kts | 86° |
| 2026-05-07 20:48 | 25.26626 | 51.62016 | 28 ft | 3 kts | 125° |
| 2026-05-07 20:48 | 25.26606 | 51.62024 | 28 ft | 4 kts | 159° |
| 2026-05-07 20:48 | 25.26573 | 51.62038 | 28 ft | 6 kts | 159° |
| 2026-05-07 20:48 | 25.26526 | 51.62059 | 28 ft | 8 kts | 158° |
| 2026-05-07 20:49 | 25.26466 | 51.62085 | 28 ft | 10 kts | 159° |
| 2026-05-07 20:49 | 25.26395 | 51.62116 | 28 ft | 12 kts | 159° |
| 2026-05-07 20:49 | 25.26311 | 51.62152 | 28 ft | 14 kts | 159° |
| 2026-05-07 20:49 | 25.26216 | 51.62192 | 29 ft | 15 kts | 159° |
| 2026-05-07 20:50 | 25.26113 | 51.62239 | 29 ft | 17 kts | 158° |
| 2026-05-07 20:50 | 25.25999 | 51.62291 | 29 ft | 19 kts | 158° |
| 2026-05-07 20:50 | 25.25873 | 51.62348 | 29 ft | 20 kts | 158° |
| 2026-05-07 20:50 | 25.25737 | 51.62409 | 28 ft | 22 kts | 158° |
| 2026-05-07 20:51 | 25.25618 | 51.62502 | 28 ft | 21 kts | 105° |
| 2026-05-07 20:51 | 25.25696 | 51.62613 | 28 ft | 20 kts | 8° |
| 2026-05-07 20:51 | 25.25833 | 51.62569 | 28 ft | 21 kts | 339° |
| 2026-05-07 20:51 | 25.25971 | 51.62509 | 28 ft | 22 kts | 338° |
| 2026-05-07 20:52 | 25.26261 | 51.62381 | 30 ft | 84 kts | 338° |
| 2026-05-07 20:52 | 25.27081 | 51.62006 | 27 ft | 169 kts | 337° |
| 2026-05-07 20:52 | 25.28326 | 51.61417 | 477 ft | 207 kts | 336° |
| 2026-05-07 20:52 | 25.29694 | 51.60827 | 1446 ft | 216 kts | 339° |
| 2026-05-07 20:53 | 25.31192 | 51.60192 | 2373 ft | 237 kts | 338° |
| 2026-05-07 20:53 | 25.32835 | 51.59629 | 3246 ft | 267 kts | 353° |
| 2026-05-07 20:53 | 25.34832 | 51.59840 | 3819 ft | 307 kts | 12° |
| 2026-05-07 20:53 | 25.37021 | 51.60453 | 4066 ft | 350 kts | 14° |
| 2026-05-07 20:54 | 25.39508 | 51.61171 | 4101 ft | 381 kts | 14° |
| 2026-05-07 20:54 | 25.42196 | 51.61911 | 4115 ft | 414 kts | 13° |
| 2026-05-07 20:54 | 25.44960 | 51.62649 | 4132 ft | 397 kts | 13° |
| 2026-05-07 20:54 | 25.47557 | 51.63323 | 4136 ft | 371 kts | 12° |
| 2026-05-07 20:55 | 25.50023 | 51.63930 | 4153 ft | 363 kts | 12° |
| 2026-05-07 20:55 | 25.52504 | 51.64532 | 4484 ft | 363 kts | 12° |
| 2026-05-07 20:55 | 25.54914 | 51.65117 | 5072 ft | 353 kts | 12° |
| 2026-05-07 20:55 | 25.57307 | 51.65681 | 5986 ft | 346 kts | 9° |
| 2026-05-07 20:56 | 25.59647 | 51.65652 | 6891 ft | 338 kts | 349° |
| 2026-05-07 20:56 | 25.61925 | 51.65097 | 7846 ft | 330 kts | 346° |
| 2026-05-07 20:56 | 25.64143 | 51.64521 | 8819 ft | 322 kts | 346° |
| 2026-05-07 20:56 | 25.66298 | 51.63975 | 9807 ft | 315 kts | 347° |
| 2026-05-07 20:57 | 25.68420 | 51.63447 | 10629 ft | 313 kts | 347° |
| 2026-05-07 20:57 | 25.70602 | 51.62911 | 10968 ft | 328 kts | 347° |
| 2026-05-07 20:57 | 25.72864 | 51.62280 | 11233 ft | 343 kts | 341° |
| 2026-05-07 20:57 | 25.75121 | 51.61309 | 11577 ft | 354 kts | 336° |
| 2026-05-07 20:58 | 25.77411 | 51.60223 | 12087 ft | 359 kts | 336° |
| 2026-05-07 20:58 | 25.79714 | 51.59131 | 12610 ft | 363 kts | 336° |
| 2026-05-07 20:58 | 25.82046 | 51.58020 | 13125 ft | 367 kts | 335° |
| 2026-05-07 20:58 | 25.84248 | 51.56560 | 13615 ft | 371 kts | 320° |
| 2026-05-07 20:59 | 25.85956 | 51.54419 | 14117 ft | 373 kts | 302° |
| 2026-05-07 20:59 | 25.87252 | 51.51898 | 14647 ft | 376 kts | 298° |
| 2026-05-07 20:59 | 25.88454 | 51.49361 | 15121 ft | 379 kts | 297° |
| 2026-05-07 20:59 | 25.89687 | 51.46763 | 15642 ft | 382 kts | 297° |
| 2026-05-07 21:00 | 25.90943 | 51.44135 | 16142 ft | 385 kts | 298° |
| 2026-05-07 21:00 | 25.92209 | 51.41502 | 16634 ft | 387 kts | 298° |
| 2026-05-07 21:00 | 25.93485 | 51.38854 | 17120 ft | 390 kts | 298° |
| 2026-05-07 21:00 | 25.94772 | 51.36185 | 17592 ft | 393 kts | 298° |
| 2026-05-07 21:01 | 25.96069 | 51.33497 | 18052 ft | 396 kts | 298° |
| 2026-05-07 21:01 | 25.97374 | 51.30783 | 18505 ft | 398 kts | 297° |
| 2026-05-07 21:01 | 25.98668 | 51.28033 | 18948 ft | 401 kts | 297° |
| 2026-05-07 21:01 | 25.99944 | 51.25306 | 19370 ft | 404 kts | 297° |
| 2026-05-07 21:02 | 26.01241 | 51.22533 | 19797 ft | 406 kts | 297° |
| 2026-05-07 21:02 | 26.02554 | 51.19726 | 20212 ft | 409 kts | 297° |
| 2026-05-07 21:02 | 26.03872 | 51.16907 | 20618 ft | 411 kts | 297° |
| 2026-05-07 21:02 | 26.05198 | 51.14069 | 21015 ft | 414 kts | 297° |
| 2026-05-07 21:03 | 26.06531 | 51.11213 | 21401 ft | 416 kts | 297° |
| 2026-05-07 21:03 | 26.07855 | 51.08377 | 21777 ft | 419 kts | 297° |
| 2026-05-07 21:03 | 26.09201 | 51.05491 | 22153 ft | 421 kts | 297° |
| 2026-05-07 21:03 | 26.10551 | 51.02563 | 22510 ft | 423 kts | 296° |
| 2026-05-07 21:04 | 26.11684 | 50.99573 | 22858 ft | 426 kts | 290° |
| 2026-05-07 21:04 | 26.12654 | 50.96458 | 23209 ft | 428 kts | 288° |
| 2026-05-07 21:04 | 26.13264 | 50.94310 | 23455 ft | 429 kts | 287° |
| 2026-05-07 21:04 | 26.14409 | 50.90050 | 23904 ft | 432 kts | 286° |
| 2026-05-07 21:05 | 26.15266 | 50.86808 | 24246 ft | 434 kts | 286° |
| 2026-05-07 21:05 | 26.16102 | 50.83679 | 24558 ft | 437 kts | 287° |
| 2026-05-07 21:05 | 26.16980 | 50.80433 | 24889 ft | 439 kts | 287° |
| 2026-05-07 21:05 | 26.17873 | 50.77169 | 25209 ft | 441 kts | 287° |
| 2026-05-07 21:06 | 26.18776 | 50.73889 | 25525 ft | 443 kts | 287° |
| 2026-05-07 21:06 | 26.19685 | 50.70597 | 25849 ft | 445 kts | 287° |
| 2026-05-07 21:06 | 26.20587 | 50.67332 | 26164 ft | 448 kts | 287° |
| 2026-05-07 21:06 | 26.21509 | 50.63991 | 26486 ft | 450 kts | 287° |
| 2026-05-07 21:07 | 26.22128 | 50.61747 | 26703 ft | 451 kts | 287° |
| 2026-05-07 21:07 | 26.23353 | 50.57292 | 27124 ft | 454 kts | 287° |
| 2026-05-07 21:07 | 26.24280 | 50.53917 | 27438 ft | 456 kts | 287° |
| 2026-05-07 21:07 | 26.24909 | 50.51625 | 27661 ft | 458 kts | 287° |
| 2026-05-07 21:08 | 26.25829 | 50.48269 | 27968 ft | 460 kts | 287° |
| 2026-05-07 21:08 | 26.26765 | 50.44853 | 28288 ft | 462 kts | 287° |
| 2026-05-07 21:08 | 26.27707 | 50.41408 | 28602 ft | 465 kts | 287° |
| 2026-05-07 21:08 | 26.28649 | 50.37960 | 28914 ft | 467 kts | 287° |
| 2026-05-07 21:09 | 26.29589 | 50.34490 | 29225 ft | 469 kts | 285° |
| 2026-05-07 21:09 | 26.30331 | 50.30943 | 29528 ft | 471 kts | 281° |
| 2026-05-07 21:09 | 26.30965 | 50.27342 | 29846 ft | 473 kts | 281° |
| 2026-05-07 21:09 | 26.31564 | 50.23719 | 30154 ft | 475 kts | 280° |
| 2026-05-07 21:10 | 26.32144 | 50.20097 | 30458 ft | 478 kts | 280° |
| 2026-05-07 21:10 | 26.32723 | 50.16428 | 30758 ft | 480 kts | 280° |
| 2026-05-07 21:10 | 26.33302 | 50.12761 | 31050 ft | 482 kts | 280° |
| 2026-05-07 21:10 | 26.33889 | 50.09058 | 31333 ft | 485 kts | 280° |
| 2026-05-07 21:11 | 26.34474 | 50.05377 | 31608 ft | 487 kts | 280° |
| 2026-05-07 21:11 | 26.35069 | 50.01639 | 31879 ft | 489 kts | 280° |
| 2026-05-07 21:11 | 26.36251 | 49.94222 | 32538 ft | 489 kts | 280° |
| 2026-05-07 21:12 | 26.36844 | 49.90496 | 32913 ft | 488 kts | 280° |
| 2026-05-07 21:12 | 26.37435 | 49.86771 | 33240 ft | 487 kts | 280° |
| 2026-05-07 21:12 | 26.38024 | 49.83050 | 33588 ft | 487 kts | 280° |
| 2026-05-07 21:12 | 26.38613 | 49.79328 | 33933 ft | 486 kts | 280° |
| 2026-05-07 21:13 | 26.39198 | 49.75622 | 34275 ft | 485 kts | 280° |
| 2026-05-07 21:13 | 26.39780 | 49.71926 | 34608 ft | 485 kts | 280° |
| 2026-05-07 21:13 | 26.40363 | 49.68219 | 34944 ft | 484 kts | 280° |
| 2026-05-07 21:13 | 26.40943 | 49.64522 | 35261 ft | 483 kts | 280° |
| 2026-05-07 21:14 | 26.41522 | 49.60827 | 35579 ft | 483 kts | 280° |
| 2026-05-07 21:14 | 26.42100 | 49.57131 | 35816 ft | 484 kts | 279° |
| 2026-05-07 21:14 | 26.42676 | 49.53442 | 35935 ft | 488 kts | 279° |
| 2026-05-07 21:14 | 26.43262 | 49.49687 | 35997 ft | 493 kts | 279° |
| 2026-05-07 21:15 | 26.44446 | 49.42073 | 35998 ft | 502 kts | 279° |
| 2026-05-07 21:15 | 26.45638 | 49.34377 | 35999 ft | 503 kts | 279° |
| 2026-05-07 21:16 | 26.46817 | 49.26737 | 36000 ft | 502 kts | 279° |
| 2026-05-07 21:16 | 26.48004 | 49.19019 | 36002 ft | 502 kts | 279° |
| 2026-05-07 21:17 | 26.49174 | 49.11385 | 36000 ft | 502 kts | 279° |
| 2026-05-07 21:17 | 26.50347 | 49.03700 | 36000 ft | 502 kts | 279° |
| 2026-05-07 21:18 | 26.51515 | 48.96017 | 35996 ft | 502 kts | 279° |
| 2026-05-07 21:18 | 26.52686 | 48.88287 | 36002 ft | 502 kts | 279° |
| 2026-05-07 21:19 | 26.53840 | 48.80644 | 36003 ft | 502 kts | 279° |
| 2026-05-07 21:19 | 26.54999 | 48.72939 | 36001 ft | 503 kts | 279° |
| 2026-05-07 21:20 | 26.56153 | 48.65235 | 36003 ft | 502 kts | 279° |
| 2026-05-07 21:20 | 26.57301 | 48.57539 | 35998 ft | 502 kts | 279° |
| 2026-05-07 21:21 | 26.58447 | 48.49831 | 36003 ft | 503 kts | 279° |
| 2026-05-07 21:21 | 26.59583 | 48.42161 | 36000 ft | 503 kts | 279° |
| 2026-05-07 21:22 | 26.60721 | 48.34447 | 36001 ft | 503 kts | 279° |
| 2026-05-07 21:22 | 26.61859 | 48.26709 | 36003 ft | 503 kts | 279° |
| 2026-05-07 21:23 | 26.62990 | 48.18983 | 36000 ft | 503 kts | 279° |
| 2026-05-07 21:23 | 26.64115 | 48.11266 | 35996 ft | 503 kts | 279° |
| 2026-05-07 21:24 | 26.65229 | 48.03594 | 36002 ft | 503 kts | 279° |
| 2026-05-07 21:24 | 26.66348 | 47.95862 | 35998 ft | 503 kts | 279° |
| 2026-05-07 21:25 | 26.67465 | 47.88116 | 36000 ft | 503 kts | 279° |
| 2026-05-07 21:25 | 26.68576 | 47.80379 | 35996 ft | 503 kts | 279° |
| 2026-05-07 21:26 | 26.69680 | 47.72657 | 36001 ft | 504 kts | 279° |
| 2026-05-07 21:26 | 26.70783 | 47.64910 | 36003 ft | 504 kts | 279° |
| 2026-05-07 21:27 | 26.71881 | 47.57171 | 35999 ft | 504 kts | 279° |
| 2026-05-07 21:27 | 26.72975 | 47.49424 | 36001 ft | 504 kts | 279° |
| 2026-05-07 21:28 | 26.74058 | 47.41725 | 36000 ft | 504 kts | 279° |
| 2026-05-07 21:28 | 26.75146 | 47.33965 | 36003 ft | 504 kts | 279° |
| 2026-05-07 21:29 | 26.76228 | 47.26211 | 36002 ft | 504 kts | 279° |
| 2026-05-07 21:29 | 26.77305 | 47.18461 | 36003 ft | 504 kts | 278° |
| 2026-05-07 21:30 | 26.78378 | 47.10711 | 35997 ft | 504 kts | 278° |
| 2026-05-07 21:30 | 26.79445 | 47.02974 | 36001 ft | 504 kts | 278° |
| 2026-05-07 21:31 | 26.80510 | 46.95214 | 36000 ft | 504 kts | 278° |
| 2026-05-07 21:31 | 26.81566 | 46.87488 | 36003 ft | 504 kts | 278° |
| 2026-05-07 21:32 | 26.82624 | 46.79722 | 36002 ft | 504 kts | 278° |
| 2026-05-07 21:32 | 26.83678 | 46.71946 | 35998 ft | 504 kts | 278° |
| 2026-05-07 21:33 | 26.84728 | 46.64169 | 35998 ft | 504 kts | 278° |
| 2026-05-07 21:33 | 26.85768 | 46.56437 | 36002 ft | 504 kts | 278° |
| 2026-05-07 21:34 | 26.86807 | 46.48670 | 36003 ft | 504 kts | 278° |
| 2026-05-07 21:34 | 26.87844 | 46.40895 | 36002 ft | 505 kts | 278° |
| 2026-05-07 21:35 | 26.88877 | 46.33109 | 36001 ft | 505 kts | 278° |
| 2026-05-07 21:35 | 26.89900 | 46.25367 | 36001 ft | 505 kts | 278° |
| 2026-05-07 21:36 | 26.90922 | 46.17598 | 35998 ft | 505 kts | 278° |
| 2026-05-07 21:36 | 26.91943 | 46.09806 | 36001 ft | 505 kts | 278° |
| 2026-05-07 21:37 | 26.92957 | 46.02035 | 36003 ft | 505 kts | 278° |
| 2026-05-07 21:37 | 26.93970 | 45.94230 | 35997 ft | 505 kts | 278° |
| 2026-05-07 21:38 | 26.94977 | 45.86445 | 36000 ft | 505 kts | 278° |
| 2026-05-07 21:38 | 26.95974 | 45.78702 | 36004 ft | 505 kts | 278° |
| 2026-05-07 21:39 | 26.96973 | 45.70907 | 36002 ft | 505 kts | 278° |
| 2026-05-07 21:39 | 26.97967 | 45.63115 | 36003 ft | 505 kts | 278° |
| 2026-05-07 21:40 | 26.98959 | 45.55304 | 35998 ft | 505 kts | 278° |
| 2026-05-07 21:40 | 26.99947 | 45.47492 | 35998 ft | 505 kts | 278° |
| 2026-05-07 21:41 | 27.00928 | 45.39691 | 36000 ft | 505 kts | 278° |
| 2026-05-07 21:41 | 27.01900 | 45.31933 | 35999 ft | 505 kts | 278° |
| 2026-05-07 21:42 | 27.02877 | 45.24106 | 36003 ft | 505 kts | 278° |
| 2026-05-07 21:42 | 27.03846 | 45.16295 | 35998 ft | 505 kts | 278° |
| 2026-05-07 21:43 | 27.04811 | 45.08485 | 35998 ft | 505 kts | 278° |
| 2026-05-07 21:43 | 27.05773 | 45.00669 | 36002 ft | 505 kts | 278° |
| 2026-05-07 21:44 | 27.06723 | 44.92904 | 35999 ft | 505 kts | 278° |
| 2026-05-07 21:44 | 27.07676 | 44.85088 | 36000 ft | 506 kts | 277° |
| 2026-05-07 21:45 | 27.08625 | 44.77259 | 36003 ft | 506 kts | 277° |
| 2026-05-07 21:45 | 27.09569 | 44.69442 | 35996 ft | 505 kts | 277° |
| 2026-05-07 21:46 | 27.10508 | 44.61620 | 36003 ft | 505 kts | 277° |
| 2026-05-07 21:46 | 27.11440 | 44.53829 | 35999 ft | 505 kts | 277° |
| 2026-05-07 21:47 | 27.12369 | 44.46020 | 36000 ft | 505 kts | 277° |
| 2026-05-07 21:47 | 27.13141 | 44.39499 | 36003 ft | 505 kts | 277° |
| 2026-05-07 21:48 | 27.14066 | 44.31662 | 35998 ft | 505 kts | 277° |
| 2026-05-07 21:48 | 27.14985 | 44.23829 | 36003 ft | 505 kts | 277° |
| 2026-05-07 21:49 | 27.15891 | 44.16069 | 36002 ft | 506 kts | 277° |
| 2026-05-07 21:49 | 27.16803 | 44.08229 | 35996 ft | 506 kts | 277° |
| 2026-05-07 21:50 | 27.17709 | 44.00388 | 35998 ft | 506 kts | 277° |
| 2026-05-07 21:50 | 27.18756 | 43.91284 | 36004 ft | 506 kts | 277° |
| 2026-05-07 21:51 | 27.19658 | 43.83400 | 36001 ft | 506 kts | 277° |
| 2026-05-07 21:51 | 27.20545 | 43.75607 | 35998 ft | 506 kts | 277° |
| 2026-05-07 21:52 | 27.21435 | 43.67752 | 36003 ft | 506 kts | 277° |
| 2026-05-07 21:52 | 27.22319 | 43.59907 | 36000 ft | 506 kts | 277° |
| 2026-05-07 21:53 | 27.23201 | 43.52043 | 36001 ft | 506 kts | 277° |
| 2026-05-07 21:53 | 27.24077 | 43.44188 | 35996 ft | 506 kts | 277° |
| 2026-05-07 21:54 | 27.24801 | 43.37664 | 36000 ft | 506 kts | 277° |
| 2026-05-07 21:54 | 27.25811 | 43.28517 | 36002 ft | 506 kts | 277° |
| 2026-05-07 21:55 | 27.26534 | 43.21932 | 35999 ft | 506 kts | 277° |
| 2026-05-07 21:55 | 27.27389 | 43.14111 | 35997 ft | 507 kts | 277° |
| 2026-05-07 21:56 | 27.28246 | 43.06231 | 36002 ft | 507 kts | 277° |
| 2026-05-07 21:56 | 27.29097 | 42.98366 | 36001 ft | 507 kts | 277° |
| 2026-05-07 21:57 | 27.29937 | 42.90552 | 35998 ft | 507 kts | 277° |
| 2026-05-07 21:57 | 27.30780 | 42.82678 | 36003 ft | 507 kts | 277° |
| 2026-05-07 21:58 | 27.31621 | 42.74782 | 35998 ft | 507 kts | 277° |
| 2026-05-07 21:58 | 27.32456 | 42.66896 | 35996 ft | 507 kts | 277° |
| 2026-05-07 21:59 | 27.33280 | 42.59070 | 36003 ft | 507 kts | 277° |
| 2026-05-07 21:59 | 27.34107 | 42.51170 | 36001 ft | 507 kts | 276° |
| 2026-05-07 22:00 | 27.34924 | 42.43328 | 36002 ft | 507 kts | 276° |
| 2026-05-07 22:00 | 27.35741 | 42.35435 | 35996 ft | 508 kts | 276° |
| 2026-05-07 22:01 | 27.36555 | 42.27532 | 36003 ft | 508 kts | 276° |
| 2026-05-07 22:01 | 27.37360 | 42.19667 | 35999 ft | 508 kts | 276° |
| 2026-05-07 22:02 | 27.38165 | 42.11765 | 36004 ft | 508 kts | 276° |
| 2026-05-07 22:02 | 27.38967 | 42.03846 | 36001 ft | 508 kts | 276° |
| 2026-05-07 22:03 | 27.39735 | 41.96213 | 36001 ft | 508 kts | 276° |
| 2026-05-07 22:03 | 27.40537 | 41.88205 | 36002 ft | 509 kts | 276° |
| 2026-05-07 22:04 | 27.41320 | 41.80339 | 35999 ft | 509 kts | 276° |
| 2026-05-07 22:04 | 27.42227 | 41.72430 | 36003 ft | 509 kts | 282° |
| 2026-05-07 22:05 | 27.44696 | 41.65033 | 36002 ft | 509 kts | 300° |
| 2026-05-07 22:05 | 27.48636 | 41.58360 | 35998 ft | 510 kts | 305° |
| 2026-05-07 22:06 | 27.52762 | 41.51913 | 36000 ft | 511 kts | 306° |
| 2026-05-07 22:06 | 27.56926 | 41.45411 | 36002 ft | 511 kts | 305° |
| 2026-05-07 22:07 | 27.61051 | 41.38886 | 36002 ft | 511 kts | 305° |
| 2026-05-07 22:07 | 27.65158 | 41.32342 | 36001 ft | 509 kts | 305° |
| 2026-05-07 22:08 | 27.69239 | 41.25823 | 36002 ft | 509 kts | 305° |
| 2026-05-07 22:08 | 27.73324 | 41.19292 | 35999 ft | 508 kts | 305° |
| 2026-05-07 22:09 | 27.77379 | 41.12800 | 36000 ft | 508 kts | 305° |
| 2026-05-07 22:09 | 27.81460 | 41.06258 | 36000 ft | 508 kts | 305° |
| 2026-05-07 22:10 | 27.85529 | 40.99725 | 36000 ft | 508 kts | 305° |
| 2026-05-07 22:10 | 27.89584 | 40.93205 | 36001 ft | 508 kts | 305° |
| 2026-05-07 22:11 | 27.93642 | 40.86669 | 36000 ft | 508 kts | 305° |
| 2026-05-07 22:11 | 27.97708 | 40.80111 | 36002 ft | 508 kts | 305° |
| 2026-05-07 22:12 | 28.01762 | 40.73563 | 36000 ft | 509 kts | 305° |
| 2026-05-07 22:12 | 28.05826 | 40.66989 | 36000 ft | 508 kts | 305° |
| 2026-05-07 22:13 | 28.09874 | 40.60431 | 36001 ft | 508 kts | 304° |
| 2026-05-07 22:13 | 28.13900 | 40.53898 | 36002 ft | 508 kts | 304° |
| 2026-05-07 22:14 | 28.18190 | 40.46925 | 36001 ft | 509 kts | 304° |
| 2026-05-07 22:14 | 28.22215 | 40.40374 | 36000 ft | 509 kts | 304° |
| 2026-05-07 22:15 | 28.26261 | 40.33777 | 36000 ft | 508 kts | 304° |
| 2026-05-07 22:15 | 28.30304 | 40.27177 | 36000 ft | 508 kts | 304° |
| 2026-05-07 22:16 | 28.34317 | 40.20614 | 36000 ft | 508 kts | 304° |
| 2026-05-07 22:16 | 28.38346 | 40.14015 | 35999 ft | 508 kts | 304° |
| 2026-05-07 22:17 | 28.42378 | 40.07401 | 36002 ft | 508 kts | 304° |
| 2026-05-07 22:17 | 28.46398 | 40.00797 | 36002 ft | 508 kts | 304° |
| 2026-05-07 22:18 | 28.52351 | 39.90997 | 35997 ft | 508 kts | 304° |
| 2026-05-07 22:19 | 28.56373 | 39.84363 | 36000 ft | 508 kts | 304° |
| 2026-05-07 22:19 | 28.60386 | 39.77733 | 36000 ft | 508 kts | 304° |
| 2026-05-07 22:20 | 28.64397 | 39.71098 | 36001 ft | 508 kts | 304° |
| 2026-05-07 22:20 | 28.68405 | 39.64455 | 36000 ft | 508 kts | 304° |
| 2026-05-07 22:21 | 28.72409 | 39.57811 | 36000 ft | 508 kts | 304° |
| 2026-05-07 22:21 | 28.76384 | 39.51203 | 36000 ft | 508 kts | 304° |
| 2026-05-07 22:22 | 28.80383 | 39.44545 | 35998 ft | 508 kts | 304° |
| 2026-05-07 22:22 | 28.84374 | 39.37890 | 36001 ft | 508 kts | 304° |
| 2026-05-07 22:23 | 28.88367 | 39.31221 | 36002 ft | 508 kts | 304° |
| 2026-05-07 22:23 | 28.92335 | 39.24583 | 35999 ft | 508 kts | 304° |
| 2026-05-07 22:24 | 28.96318 | 39.17908 | 36000 ft | 508 kts | 304° |
| 2026-05-07 22:24 | 29.00278 | 39.11263 | 36001 ft | 508 kts | 304° |
| 2026-05-07 22:25 | 29.04248 | 39.04591 | 36002 ft | 508 kts | 304° |
| 2026-05-07 22:25 | 29.08145 | 38.97852 | 35997 ft | 508 kts | 299° |
| 2026-05-07 22:26 | 29.10661 | 38.90352 | 36001 ft | 507 kts | 281° |
| 2026-05-07 22:26 | 29.11172 | 38.82359 | 35997 ft | 507 kts | 270° |
| 2026-05-07 22:27 | 29.11121 | 38.74296 | 36004 ft | 507 kts | 269° |
| 2026-05-07 22:27 | 29.11016 | 38.66222 | 36002 ft | 507 kts | 269° |
| 2026-05-07 22:28 | 29.10956 | 38.59524 | 35996 ft | 507 kts | 269° |
| 2026-05-07 22:28 | 29.10907 | 38.51463 | 36001 ft | 507 kts | 269° |
| 2026-05-07 22:29 | 29.10861 | 38.43398 | 36002 ft | 507 kts | 269° |
| 2026-05-07 22:29 | 29.10810 | 38.35379 | 36004 ft | 507 kts | 269° |
| 2026-05-07 22:30 | 29.10752 | 38.27294 | 35996 ft | 507 kts | 269° |
| 2026-05-07 22:30 | 29.10689 | 38.19254 | 36002 ft | 507 kts | 269° |
| 2026-05-07 22:31 | 29.10621 | 38.11170 | 36001 ft | 507 kts | 269° |
| 2026-05-07 22:31 | 29.10548 | 38.03091 | 36004 ft | 507 kts | 269° |
| 2026-05-07 22:32 | 29.10470 | 37.95033 | 35996 ft | 507 kts | 269° |
| 2026-05-07 22:32 | 29.10388 | 37.86998 | 36002 ft | 507 kts | 269° |
| 2026-05-07 22:33 | 29.10301 | 37.78914 | 36002 ft | 507 kts | 269° |
| 2026-05-07 22:33 | 29.10209 | 37.70893 | 36003 ft | 507 kts | 269° |
| 2026-05-07 22:34 | 29.10112 | 37.62824 | 36004 ft | 508 kts | 269° |
| 2026-05-07 22:34 | 29.10010 | 37.54733 | 35999 ft | 508 kts | 269° |
| 2026-05-07 22:35 | 29.09903 | 37.46638 | 36000 ft | 508 kts | 269° |
| 2026-05-07 22:35 | 29.09792 | 37.38593 | 36002 ft | 508 kts | 269° |
| 2026-05-07 22:36 | 29.09676 | 37.30503 | 36001 ft | 509 kts | 269° |
| 2026-05-07 22:36 | 29.09554 | 37.22425 | 35996 ft | 509 kts | 269° |
| 2026-05-07 22:37 | 29.09427 | 37.14303 | 36001 ft | 509 kts | 269° |
| 2026-05-07 22:37 | 29.09297 | 37.06247 | 35998 ft | 510 kts | 269° |
| 2026-05-07 22:38 | 29.09160 | 36.98126 | 35996 ft | 510 kts | 269° |
| 2026-05-07 22:38 | 29.09019 | 36.90035 | 36000 ft | 510 kts | 269° |
| 2026-05-07 22:39 | 29.08898 | 36.83289 | 35997 ft | 509 kts | 269° |
| 2026-05-07 22:39 | 29.08722 | 36.73817 | 35997 ft | 509 kts | 269° |
| 2026-05-07 22:40 | 29.08569 | 36.65830 | 35997 ft | 508 kts | 269° |
| 2026-05-07 22:40 | 29.08407 | 36.57694 | 36001 ft | 508 kts | 269° |
| 2026-05-07 22:41 | 29.08243 | 36.49620 | 36002 ft | 507 kts | 269° |
| 2026-05-07 22:41 | 29.08073 | 36.41560 | 35996 ft | 507 kts | 269° |
| 2026-05-07 22:42 | 29.07899 | 36.33491 | 36004 ft | 507 kts | 268° |
| 2026-05-07 22:42 | 29.07720 | 36.25443 | 35997 ft | 507 kts | 268° |
| 2026-05-07 22:43 | 29.07536 | 36.17383 | 36003 ft | 506 kts | 268° |
| 2026-05-07 22:43 | 29.07348 | 36.09340 | 36000 ft | 507 kts | 268° |
| 2026-05-07 22:44 | 29.07155 | 36.01287 | 36000 ft | 507 kts | 268° |
| 2026-05-07 22:44 | 29.06971 | 35.93808 | 36002 ft | 507 kts | 268° |
| 2026-05-07 22:45 | 29.06768 | 35.85752 | 36000 ft | 507 kts | 268° |
| 2026-05-07 22:45 | 29.06560 | 35.77679 | 35996 ft | 508 kts | 268° |
| 2026-05-07 22:46 | 29.06347 | 35.69591 | 35995 ft | 509 kts | 268° |
| 2026-05-07 22:46 | 29.06129 | 35.61495 | 35996 ft | 510 kts | 268° |
| 2026-05-07 22:47 | 29.05905 | 35.53385 | 36001 ft | 511 kts | 268° |
| 2026-05-07 22:47 | 29.05678 | 35.45295 | 36004 ft | 511 kts | 268° |
| 2026-05-07 22:48 | 29.05480 | 35.38414 | 35996 ft | 510 kts | 268° |